sensor_id;sensor_type;location;lat;lon;timestamp;temperature;humidity
52979;DHT22;63430;53.186;6.598;2023-07-28T00:00:42;18.10;99.90
52979;DHT22;63430;53.186;6.598;2023-07-28T00:02:44;18.10;99.90
52979;DHT22;63430;53.186;6.598;2023-07-28T00:04:59;18.10;99.90
52979;DHT22;63430;53.186;6.598;2023-07-28T00:07:02;18.10;99.90
52979;DHT22;63430;53.186;6.598;2023-07-28T00:09:04;18.10;99.90
52979;DHT22;63430;53.186;6.598;2023-07-28T00:11:10;18.10;99.90
52979;DHT22;63430;53.186;6.598;2023-07-28T00:13:14;18.10;99.90
52979;DHT22;63430;53.186;6.598;2023-07-28T00:15:21;18.10;99.90
52979;DHT22;63430;53.186;6.598;2023-07-28T00:17:24;18.10;99.90
52979;DHT22;63430;53.186;6.598;2023-07-28T00:19:27;18.10;99.90
52979;DHT22;63430;53.186;6.598;2023-07-28T00:21:35;18.10;99.90
52979;DHT22;63430;53.186;6.598;2023-07-28T00:23:37;18.10;99.90
52979;DHT22;63430;53.186;6.598;2023-07-28T00:25:40;18.10;99.90
52979;DHT22;63430;53.186;6.598;2023-07-28T00:27:43;18.10;99.90
52979;DHT22;63430;53.186;6.598;2023-07-28T00:29:49;18.10;99.90
52979;DHT22;63430;53.186;6.598;2023-07-28T00:31:52;18.10;99.90
52979;DHT22;63430;53.186;6.598;2023-07-28T00:33:55;18.10;99.90
52979;DHT22;63430;53.186;6.598;2023-07-28T00:35:58;18.10;99.90
52979;DHT22;63430;53.186;6.598;2023-07-28T00:38:04;18.10;99.90
52979;DHT22;63430;53.186;6.598;2023-07-28T00:40:11;18.10;99.90
52979;DHT22;63430;53.186;6.598;2023-07-28T00:42:15;18.10;99.90
52979;DHT22;63430;53.186;6.598;2023-07-28T00:44:21;18.10;99.90
52979;DHT22;63430;53.186;6.598;2023-07-28T00:46:25;18.10;99.90
52979;DHT22;63430;53.186;6.598;2023-07-28T00:48:27;18.10;99.90
52979;DHT22;63430;53.186;6.598;2023-07-28T00:50:30;18.10;99.90
52979;DHT22;63430;53.186;6.598;2023-07-28T00:52:33;18.10;99.90
52979;DHT22;63430;53.186;6.598;2023-07-28T00:54:39;18.10;99.90
52979;DHT22;63430;53.186;6.598;2023-07-28T00:56:42;18.10;99.90
52979;DHT22;63430;53.186;6.598;2023-07-28T00:58:45;18.10;99.90
52979;DHT22;63430;53.186;6.598;2023-07-28T01:00:47;18.10;99.90
52979;DHT22;63430;53.186;6.598;2023-07-28T01:02:50;18.10;99.90
52979;DHT22;63430;53.186;6.598;2023-07-28T01:04:55;18.10;99.90
52979;DHT22;63430;53.186;6.598;2023-07-28T01:07:03;18.10;99.90
52979;DHT22;63430;53.186;6.598;2023-07-28T01:09:11;18.10;99.90
52979;DHT22;63430;53.186;6.598;2023-07-28T01:11:18;18.10;99.90
52979;DHT22;63430;53.186;6.598;2023-07-28T01:13:24;18.10;99.90
52979;DHT22;63430;53.186;6.598;2023-07-28T01:15:27;18.10;99.90
52979;DHT22;63430;53.186;6.598;2023-07-28T01:17:31;18.10;99.90
52979;DHT22;63430;53.186;6.598;2023-07-28T01:19:34;18.10;99.90
52979;DHT22;63430;53.186;6.598;2023-07-28T01:21:39;18.10;99.90
52979;DHT22;63430;53.186;6.598;2023-07-28T01:23:54;18.00;99.90
52979;DHT22;63430;53.186;6.598;2023-07-28T01:28:23;18.10;99.90
52979;DHT22;63430;53.186;6.598;2023-07-28T01:30:27;18.10;99.90
52979;DHT22;63430;53.186;6.598;2023-07-28T01:32:30;18.10;99.90
52979;DHT22;63430;53.186;6.598;2023-07-28T01:34:33;18.10;99.90
52979;DHT22;63430;53.186;6.598;2023-07-28T01:36:36;18.10;99.90
52979;DHT22;63430;53.186;6.598;2023-07-28T01:38:39;18.10;99.90
52979;DHT22;63430;53.186;6.598;2023-07-28T01:40:42;18.10;99.90
52979;DHT22;63430;53.186;6.598;2023-07-28T01:42:45;18.00;99.90
52979;DHT22;63430;53.186;6.598;2023-07-28T01:44:53;18.10;99.90
52979;DHT22;63430;53.186;6.598;2023-07-28T01:46:56;18.10;99.90
52979;DHT22;63430;53.186;6.598;2023-07-28T01:48:59;18.00;99.90
52979;DHT22;63430;53.186;6.598;2023-07-28T01:51:02;18.00;99.90
52979;DHT22;63430;53.186;6.598;2023-07-28T01:53:06;18.00;99.90
52979;DHT22;63430;53.186;6.598;2023-07-28T01:55:09;18.00;99.90
52979;DHT22;63430;53.186;6.598;2023-07-28T01:57:12;18.10;99.90
52979;DHT22;63430;53.186;6.598;2023-07-28T01:59:17;18.00;99.90
52979;DHT22;63430;53.186;6.598;2023-07-28T02:01:22;18.00;99.90
52979;DHT22;63430;53.186;6.598;2023-07-28T02:03:25;18.00;99.90
52979;DHT22;63430;53.186;6.598;2023-07-28T02:05:28;18.00;99.90
52979;DHT22;63430;53.186;6.598;2023-07-28T02:07:31;18.00;99.90
52979;DHT22;63430;53.186;6.598;2023-07-28T02:09:34;18.00;99.90
52979;DHT22;63430;53.186;6.598;2023-07-28T02:11:37;18.00;99.90
52979;DHT22;63430;53.186;6.598;2023-07-28T02:13:40;18.10;99.90
52979;DHT22;63430;53.186;6.598;2023-07-28T02:15:48;18.00;99.90
52979;DHT22;63430;53.186;6.598;2023-07-28T02:17:54;18.10;99.90
52979;DHT22;63430;53.186;6.598;2023-07-28T02:19:57;18.10;99.90
52979;DHT22;63430;53.186;6.598;2023-07-28T02:22:00;18.00;99.90
52979;DHT22;63430;53.186;6.598;2023-07-28T02:24:03;18.00;99.90
52979;DHT22;63430;53.186;6.598;2023-07-28T02:26:08;18.00;99.90
52979;DHT22;63430;53.186;6.598;2023-07-28T02:28:11;18.00;99.90
52979;DHT22;63430;53.186;6.598;2023-07-28T02:30:14;18.00;99.90
52979;DHT22;63430;53.186;6.598;2023-07-28T02:32:17;18.00;99.90
52979;DHT22;63430;53.186;6.598;2023-07-28T02:34:22;18.00;99.90
52979;DHT22;63430;53.186;6.598;2023-07-28T02:36:25;18.00;99.90
52979;DHT22;63430;53.186;6.598;2023-07-28T02:38:27;18.00;99.90
52979;DHT22;63430;53.186;6.598;2023-07-28T02:40:32;18.00;99.90
52979;DHT22;63430;53.186;6.598;2023-07-28T02:42:35;18.00;99.90
52979;DHT22;63430;53.186;6.598;2023-07-28T02:44:38;18.00;99.90
52979;DHT22;63430;53.186;6.598;2023-07-28T02:46:41;18.00;99.90
52979;DHT22;63430;53.186;6.598;2023-07-28T02:48:44;18.00;99.90
52979;DHT22;63430;53.186;6.598;2023-07-28T02:50:50;18.00;99.90
52979;DHT22;63430;53.186;6.598;2023-07-28T02:52:53;18.00;99.90
52979;DHT22;63430;53.186;6.598;2023-07-28T02:54:56;18.10;99.90
52979;DHT22;63430;53.186;6.598;2023-07-28T02:56:59;18.00;99.90
52979;DHT22;63430;53.186;6.598;2023-07-28T02:59:02;18.10;99.90
52979;DHT22;63430;53.186;6.598;2023-07-28T03:01:05;18.00;99.90
52979;DHT22;63430;53.186;6.598;2023-07-28T03:03:11;18.10;99.90
52979;DHT22;63430;53.186;6.598;2023-07-28T03:05:16;18.00;99.90
52979;DHT22;63430;53.186;6.598;2023-07-28T03:07:21;18.00;99.90
52979;DHT22;63430;53.186;6.598;2023-07-28T03:09:31;18.00;99.90
52979;DHT22;63430;53.186;6.598;2023-07-28T03:11:37;18.10;99.90
52979;DHT22;63430;53.186;6.598;2023-07-28T03:14:00;18.00;99.90
52979;DHT22;63430;53.186;6.598;2023-07-28T03:16:03;18.00;99.90
52979;DHT22;63430;53.186;6.598;2023-07-28T03:18:06;18.00;99.90
52979;DHT22;63430;53.186;6.598;2023-07-28T03:20:10;18.00;99.90
52979;DHT22;63430;53.186;6.598;2023-07-28T03:22:13;18.00;99.90
52979;DHT22;63430;53.186;6.598;2023-07-28T03:24:19;18.00;99.90
52979;DHT22;63430;53.186;6.598;2023-07-28T03:26:22;18.00;99.90
52979;DHT22;63430;53.186;6.598;2023-07-28T03:28:24;18.00;99.90
52979;DHT22;63430;53.186;6.598;2023-07-28T03:30:27;18.00;99.90
52979;DHT22;63430;53.186;6.598;2023-07-28T03:32:30;18.00;99.90
52979;DHT22;63430;53.186;6.598;2023-07-28T03:34:33;18.00;99.90
52979;DHT22;63430;53.186;6.598;2023-07-28T03:36:38;18.00;99.90
52979;DHT22;63430;53.186;6.598;2023-07-28T03:38:42;18.00;99.90
52979;DHT22;63430;53.186;6.598;2023-07-28T03:40:47;18.00;99.90
52979;DHT22;63430;53.186;6.598;2023-07-28T03:42:50;18.00;99.90
52979;DHT22;63430;53.186;6.598;2023-07-28T03:44:54;18.00;99.90
52979;DHT22;63430;53.186;6.598;2023-07-28T03:46:56;18.00;99.90
52979;DHT22;63430;53.186;6.598;2023-07-28T03:49:02;17.90;99.90
52979;DHT22;63430;53.186;6.598;2023-07-28T03:51:04;18.00;99.90
52979;DHT22;63430;53.186;6.598;2023-07-28T03:53:07;18.00;99.90
52979;DHT22;63430;53.186;6.598;2023-07-28T03:55:10;18.00;99.90
52979;DHT22;63430;53.186;6.598;2023-07-28T03:57:15;18.00;99.90
52979;DHT22;63430;53.186;6.598;2023-07-28T03:59:18;18.00;99.90
52979;DHT22;63430;53.186;6.598;2023-07-28T04:01:21;18.00;99.90
52979;DHT22;63430;53.186;6.598;2023-07-28T04:03:24;18.00;99.90
52979;DHT22;63430;53.186;6.598;2023-07-28T04:05:27;18.00;99.90
52979;DHT22;63430;53.186;6.598;2023-07-28T04:07:30;18.00;99.90
52979;DHT22;63430;53.186;6.598;2023-07-28T04:09:34;18.00;99.90
52979;DHT22;63430;53.186;6.598;2023-07-28T04:11:36;18.00;99.90
52979;DHT22;63430;53.186;6.598;2023-07-28T04:13:42;18.00;99.90
52979;DHT22;63430;53.186;6.598;2023-07-28T04:15:49;18.00;99.90
52979;DHT22;63430;53.186;6.598;2023-07-28T04:18:00;18.00;99.90
52979;DHT22;63430;53.186;6.598;2023-07-28T04:20:07;18.00;99.90
52979;DHT22;63430;53.186;6.598;2023-07-28T04:22:09;18.00;99.90
52979;DHT22;63430;53.186;6.598;2023-07-28T04:24:12;18.00;99.90
52979;DHT22;63430;53.186;6.598;2023-07-28T04:26:20;18.00;99.90
52979;DHT22;63430;53.186;6.598;2023-07-28T04:28:30;18.00;99.90
52979;DHT22;63430;53.186;6.598;2023-07-28T04:30:38;18.10;99.90
52979;DHT22;63430;53.186;6.598;2023-07-28T04:32:45;18.00;99.90
52979;DHT22;63430;53.186;6.598;2023-07-28T04:34:57;18.10;99.90
52979;DHT22;63430;53.186;6.598;2023-07-28T04:37:15;18.00;99.90
52979;DHT22;63430;53.186;6.598;2023-07-28T04:39:32;18.00;99.90
52979;DHT22;63430;53.186;6.598;2023-07-28T04:41:35;18.00;99.90
52979;DHT22;63430;53.186;6.598;2023-07-28T04:43:38;18.00;99.90
52979;DHT22;63430;53.186;6.598;2023-07-28T04:45:44;18.10;99.90
52979;DHT22;63430;53.186;6.598;2023-07-28T04:47:55;18.10;99.90
52979;DHT22;63430;53.186;6.598;2023-07-28T04:50:03;18.10;99.90
52979;DHT22;63430;53.186;6.598;2023-07-28T04:52:31;18.10;99.90
52979;DHT22;63430;53.186;6.598;2023-07-28T04:55:04;18.10;99.90
52979;DHT22;63430;53.186;6.598;2023-07-28T04:57:07;18.10;99.90
52979;DHT22;63430;53.186;6.598;2023-07-28T04:59:12;18.10;99.90
52979;DHT22;63430;53.186;6.598;2023-07-28T05:01:18;18.10;99.90
52979;DHT22;63430;53.186;6.598;2023-07-28T05:03:22;18.10;99.90
52979;DHT22;63430;53.186;6.598;2023-07-28T05:05:32;18.10;99.90
52979;DHT22;63430;53.186;6.598;2023-07-28T05:07:43;18.10;99.90
52979;DHT22;63430;53.186;6.598;2023-07-28T05:09:49;18.10;99.90
52979;DHT22;63430;53.186;6.598;2023-07-28T05:11:53;18.10;99.90
52979;DHT22;63430;53.186;6.598;2023-07-28T05:13:56;18.20;99.90
52979;DHT22;63430;53.186;6.598;2023-07-28T05:16:00;18.10;99.90
52979;DHT22;63430;53.186;6.598;2023-07-28T05:18:25;18.20;99.90
52979;DHT22;63430;53.186;6.598;2023-07-28T05:21:03;18.20;99.90
52979;DHT22;63430;53.186;6.598;2023-07-28T05:23:06;18.20;99.90
52979;DHT22;63430;53.186;6.598;2023-07-28T05:25:09;18.20;99.90
52979;DHT22;63430;53.186;6.598;2023-07-28T05:27:15;18.20;99.90
52979;DHT22;63430;53.186;6.598;2023-07-28T05:29:21;18.20;99.90
52979;DHT22;63430;53.186;6.598;2023-07-28T05:31:32;18.20;99.90
52979;DHT22;63430;53.186;6.598;2023-07-28T05:33:41;18.20;99.90
52979;DHT22;63430;53.186;6.598;2023-07-28T05:35:44;18.20;99.90
52979;DHT22;63430;53.186;6.598;2023-07-28T05:37:47;18.20;99.90
52979;DHT22;63430;53.186;6.598;2023-07-28T05:39:49;18.20;99.90
52979;DHT22;63430;53.186;6.598;2023-07-28T05:41:55;18.20;99.90
52979;DHT22;63430;53.186;6.598;2023-07-28T05:43:58;18.30;99.90
52979;DHT22;63430;53.186;6.598;2023-07-28T05:46:01;18.20;99.90
52979;DHT22;63430;53.186;6.598;2023-07-28T05:48:08;18.30;99.90
52979;DHT22;63430;53.186;6.598;2023-07-28T05:50:16;18.30;99.90
52979;DHT22;63430;53.186;6.598;2023-07-28T05:52:19;18.30;99.90
52979;DHT22;63430;53.186;6.598;2023-07-28T05:54:24;18.30;99.90
52979;DHT22;63430;53.186;6.598;2023-07-28T05:56:27;18.30;99.90
52979;DHT22;63430;53.186;6.598;2023-07-28T05:58:29;18.40;99.90
52979;DHT22;63430;53.186;6.598;2023-07-28T06:00:33;18.40;99.90
52979;DHT22;63430;53.186;6.598;2023-07-28T06:02:37;18.40;99.90
52979;DHT22;63430;53.186;6.598;2023-07-28T06:04:44;18.40;99.90
52979;DHT22;63430;53.186;6.598;2023-07-28T06:06:50;18.40;99.90
52979;DHT22;63430;53.186;6.598;2023-07-28T06:08:52;18.40;99.90
52979;DHT22;63430;53.186;6.598;2023-07-28T06:10:56;18.40;99.90
52979;DHT22;63430;53.186;6.598;2023-07-28T06:12:59;18.40;99.90
52979;DHT22;63430;53.186;6.598;2023-07-28T06:15:06;18.40;99.90
52979;DHT22;63430;53.186;6.598;2023-07-28T06:17:12;18.40;99.90
52979;DHT22;63430;53.186;6.598;2023-07-28T06:19:14;18.40;99.90
52979;DHT22;63430;53.186;6.598;2023-07-28T06:21:20;18.40;99.90
52979;DHT22;63430;53.186;6.598;2023-07-28T06:23:25;18.40;99.90
52979;DHT22;63430;53.186;6.598;2023-07-28T06:25:32;18.40;99.90
52979;DHT22;63430;53.186;6.598;2023-07-28T06:27:42;18.50;99.90
52979;DHT22;63430;53.186;6.598;2023-07-28T06:29:46;18.50;99.90
52979;DHT22;63430;53.186;6.598;2023-07-28T06:31:50;18.50;99.90
52979;DHT22;63430;53.186;6.598;2023-07-28T06:33:56;18.50;99.90
52979;DHT22;63430;53.186;6.598;2023-07-28T06:35:59;18.50;99.90
52979;DHT22;63430;53.186;6.598;2023-07-28T06:38:05;18.50;99.90
52979;DHT22;63430;53.186;6.598;2023-07-28T06:40:11;18.50;99.90
52979;DHT22;63430;53.186;6.598;2023-07-28T06:42:14;18.50;99.90
52979;DHT22;63430;53.186;6.598;2023-07-28T06:44:18;18.60;99.90
52979;DHT22;63430;53.186;6.598;2023-07-28T06:46:25;18.60;99.90
52979;DHT22;63430;53.186;6.598;2023-07-28T06:48:28;18.70;99.90
52979;DHT22;63430;53.186;6.598;2023-07-28T06:50:31;18.70;99.90
52979;DHT22;63430;53.186;6.598;2023-07-28T06:52:34;18.80;99.90
52979;DHT22;63430;53.186;6.598;2023-07-28T06:54:38;18.80;99.90
52979;DHT22;63430;53.186;6.598;2023-07-28T06:56:46;18.90;99.90
52979;DHT22;63430;53.186;6.598;2023-07-28T06:58:48;18.90;99.90
52979;DHT22;63430;53.186;6.598;2023-07-28T07:01:06;18.90;99.90
52979;DHT22;63430;53.186;6.598;2023-07-28T07:03:12;18.90;99.90
52979;DHT22;63430;53.186;6.598;2023-07-28T07:05:19;18.90;99.90
52979;DHT22;63430;53.186;6.598;2023-07-28T07:07:21;18.90;99.90
52979;DHT22;63430;53.186;6.598;2023-07-28T07:09:26;19.00;99.90
52979;DHT22;63430;53.186;6.598;2023-07-28T07:11:29;19.00;99.90
52979;DHT22;63430;53.186;6.598;2023-07-28T07:13:34;19.10;99.90
52979;DHT22;63430;53.186;6.598;2023-07-28T07:15:37;19.10;99.90
52979;DHT22;63430;53.186;6.598;2023-07-28T07:17:40;19.10;99.90
52979;DHT22;63430;53.186;6.598;2023-07-28T07:19:43;19.10;99.90
52979;DHT22;63430;53.186;6.598;2023-07-28T07:21:46;19.10;99.90
52979;DHT22;63430;53.186;6.598;2023-07-28T07:23:50;19.10;99.90
52979;DHT22;63430;53.186;6.598;2023-07-28T07:26:01;19.00;99.90
52979;DHT22;63430;53.186;6.598;2023-07-28T07:28:04;19.00;99.90
52979;DHT22;63430;53.186;6.598;2023-07-28T07:30:11;19.10;99.90
52979;DHT22;63430;53.186;6.598;2023-07-28T07:32:14;19.10;99.90
52979;DHT22;63430;53.186;6.598;2023-07-28T07:34:18;19.10;99.90
52979;DHT22;63430;53.186;6.598;2023-07-28T07:36:22;19.20;99.90
52979;DHT22;63430;53.186;6.598;2023-07-28T07:38:25;19.20;99.90
52979;DHT22;63430;53.186;6.598;2023-07-28T07:40:31;19.30;99.90
52979;DHT22;63430;53.186;6.598;2023-07-28T07:42:46;19.30;99.90
52979;DHT22;63430;53.186;6.598;2023-07-28T07:44:51;19.30;99.90
52979;DHT22;63430;53.186;6.598;2023-07-28T07:47:00;19.30;99.90
52979;DHT22;63430;53.186;6.598;2023-07-28T07:49:03;19.30;99.90
52979;DHT22;63430;53.186;6.598;2023-07-28T07:51:08;19.20;99.90
52979;DHT22;63430;53.186;6.598;2023-07-28T07:53:13;19.30;99.90
52979;DHT22;63430;53.186;6.598;2023-07-28T07:55:16;19.20;99.90
52979;DHT22;63430;53.186;6.598;2023-07-28T07:57:19;19.20;99.90
52979;DHT22;63430;53.186;6.598;2023-07-28T07:59:22;19.20;99.90
52979;DHT22;63430;53.186;6.598;2023-07-28T08:01:25;19.20;99.90
52979;DHT22;63430;53.186;6.598;2023-07-28T08:03:32;19.30;99.90
52979;DHT22;63430;53.186;6.598;2023-07-28T08:05:35;19.30;99.90
52979;DHT22;63430;53.186;6.598;2023-07-28T08:07:38;19.40;99.90
52979;DHT22;63430;53.186;6.598;2023-07-28T08:09:41;19.50;99.90
52979;DHT22;63430;53.186;6.598;2023-07-28T08:11:44;19.50;99.90
52979;DHT22;63430;53.186;6.598;2023-07-28T08:13:46;19.60;99.90
52979;DHT22;63430;53.186;6.598;2023-07-28T08:15:53;19.60;99.90
52979;DHT22;63430;53.186;6.598;2023-07-28T08:17:56;19.70;99.90
52979;DHT22;63430;53.186;6.598;2023-07-28T08:20:03;19.70;99.90
52979;DHT22;63430;53.186;6.598;2023-07-28T08:22:07;19.60;99.90
52979;DHT22;63430;53.186;6.598;2023-07-28T08:24:10;19.70;99.90
52979;DHT22;63430;53.186;6.598;2023-07-28T08:26:14;19.70;99.90
52979;DHT22;63430;53.186;6.598;2023-07-28T08:28:17;19.70;99.90
52979;DHT22;63430;53.186;6.598;2023-07-28T08:30:21;19.80;99.90
52979;DHT22;63430;53.186;6.598;2023-07-28T08:32:24;19.80;99.90
52979;DHT22;63430;53.186;6.598;2023-07-28T08:34:30;19.80;99.90
52979;DHT22;63430;53.186;6.598;2023-07-28T08:36:35;19.80;99.90
52979;DHT22;63430;53.186;6.598;2023-07-28T08:38:38;19.80;99.90
52979;DHT22;63430;53.186;6.598;2023-07-28T08:40:41;19.70;99.90
52979;DHT22;63430;53.186;6.598;2023-07-28T08:42:46;19.70;99.90
52979;DHT22;63430;53.186;6.598;2023-07-28T08:44:50;19.70;99.90
52979;DHT22;63430;53.186;6.598;2023-07-28T08:47:00;19.80;99.90
52979;DHT22;63430;53.186;6.598;2023-07-28T08:49:05;19.80;99.90
52979;DHT22;63430;53.186;6.598;2023-07-28T08:51:10;19.80;99.90
52979;DHT22;63430;53.186;6.598;2023-07-28T08:53:19;19.80;99.90
52979;DHT22;63430;53.186;6.598;2023-07-28T08:55:23;19.90;99.90
52979;DHT22;63430;53.186;6.598;2023-07-28T08:57:28;19.90;99.90
52979;DHT22;63430;53.186;6.598;2023-07-28T08:59:31;20.00;99.90
52979;DHT22;63430;53.186;6.598;2023-07-28T09:01:38;19.90;99.90
52979;DHT22;63430;53.186;6.598;2023-07-28T09:03:42;19.90;99.90
52979;DHT22;63430;53.186;6.598;2023-07-28T09:05:49;19.90;99.90
52979;DHT22;63430;53.186;6.598;2023-07-28T09:07:58;20.00;99.90
52979;DHT22;63430;53.186;6.598;2023-07-28T09:10:05;20.00;99.90
52979;DHT22;63430;53.186;6.598;2023-07-28T09:12:08;20.10;99.90
52979;DHT22;63430;53.186;6.598;2023-07-28T09:14:12;20.20;99.90
52979;DHT22;63430;53.186;6.598;2023-07-28T09:16:23;20.30;99.90
52979;DHT22;63430;53.186;6.598;2023-07-28T09:18:27;20.50;99.90
52979;DHT22;63430;53.186;6.598;2023-07-28T09:20:41;20.70;99.90
52979;DHT22;63430;53.186;6.598;2023-07-28T09:22:46;21.00;99.90
52979;DHT22;63430;53.186;6.598;2023-07-28T09:24:53;21.20;99.90
52979;DHT22;63430;53.186;6.598;2023-07-28T09:26:59;21.40;99.90
52979;DHT22;63430;53.186;6.598;2023-07-28T09:29:15;21.60;99.90
52979;DHT22;63430;53.186;6.598;2023-07-28T09:31:29;21.80;99.90
52979;DHT22;63430;53.186;6.598;2023-07-28T09:33:35;21.90;99.90
52979;DHT22;63430;53.186;6.598;2023-07-28T09:35:50;21.90;99.90
52979;DHT22;63430;53.186;6.598;2023-07-28T09:37:57;21.80;99.90
52979;DHT22;63430;53.186;6.598;2023-07-28T09:40:07;21.80;99.90
52979;DHT22;63430;53.186;6.598;2023-07-28T09:42:19;21.80;99.90
52979;DHT22;63430;53.186;6.598;2023-07-28T09:44:22;21.90;99.90
52979;DHT22;63430;53.186;6.598;2023-07-28T09:46:28;22.00;99.90
52979;DHT22;63430;53.186;6.598;2023-07-28T09:48:38;22.00;99.90
52979;DHT22;63430;53.186;6.598;2023-07-28T09:50:44;22.10;99.90
52979;DHT22;63430;53.186;6.598;2023-07-28T09:52:53;22.00;99.90
52979;DHT22;63430;53.186;6.598;2023-07-28T09:55:00;21.90;99.90
52979;DHT22;63430;53.186;6.598;2023-07-28T09:57:11;21.70;99.90
52979;DHT22;63430;53.186;6.598;2023-07-28T09:59:20;21.60;99.90
52979;DHT22;63430;53.186;6.598;2023-07-28T10:01:26;21.60;99.90
52979;DHT22;63430;53.186;6.598;2023-07-28T10:03:30;21.60;99.90
52979;DHT22;63430;53.186;6.598;2023-07-28T10:05:36;21.90;99.90
52979;DHT22;63430;53.186;6.598;2023-07-28T10:07:43;21.90;99.90
52979;DHT22;63430;53.186;6.598;2023-07-28T10:09:48;22.10;99.90
52979;DHT22;63430;53.186;6.598;2023-07-28T10:11:51;22.10;99.90
52979;DHT22;63430;53.186;6.598;2023-07-28T10:13:56;22.10;99.90
52979;DHT22;63430;53.186;6.598;2023-07-28T10:16:03;21.90;99.90
52979;DHT22;63430;53.186;6.598;2023-07-28T10:18:07;22.00;99.90
52979;DHT22;63430;53.186;6.598;2023-07-28T10:20:28;22.00;99.90
52979;DHT22;63430;53.186;6.598;2023-07-28T10:22:33;21.90;99.90
52979;DHT22;63430;53.186;6.598;2023-07-28T10:24:55;21.80;99.90
52979;DHT22;63430;53.186;6.598;2023-07-28T10:26:59;21.80;99.90
52979;DHT22;63430;53.186;6.598;2023-07-28T10:29:09;21.70;99.90
52979;DHT22;63430;53.186;6.598;2023-07-28T10:31:32;21.70;99.90
52979;DHT22;63430;53.186;6.598;2023-07-28T10:33:39;21.70;99.90
52979;DHT22;63430;53.186;6.598;2023-07-28T10:35:47;21.70;99.90
52979;DHT22;63430;53.186;6.598;2023-07-28T10:37:53;21.70;99.90
52979;DHT22;63430;53.186;6.598;2023-07-28T10:40:24;22.00;99.90
52979;DHT22;63430;53.186;6.598;2023-07-28T10:42:28;22.30;99.90
52979;DHT22;63430;53.186;6.598;2023-07-28T10:44:31;22.40;99.90
52979;DHT22;63430;53.186;6.598;2023-07-28T10:46:38;22.50;99.90
52979;DHT22;63430;53.186;6.598;2023-07-28T10:48:43;22.50;99.90
52979;DHT22;63430;53.186;6.598;2023-07-28T10:50:46;22.30;99.90
52979;DHT22;63430;53.186;6.598;2023-07-28T10:52:49;22.30;99.90
52979;DHT22;63430;53.186;6.598;2023-07-28T10:54:52;22.30;99.90
52979;DHT22;63430;53.186;6.598;2023-07-28T10:56:57;22.40;99.90
52979;DHT22;63430;53.186;6.598;2023-07-28T10:59:04;22.60;99.90
52979;DHT22;63430;53.186;6.598;2023-07-28T11:01:08;22.70;99.90
52979;DHT22;63430;53.186;6.598;2023-07-28T11:03:14;22.80;99.90
52979;DHT22;63430;53.186;6.598;2023-07-28T11:05:19;22.80;99.90
52979;DHT22;63430;53.186;6.598;2023-07-28T11:07:22;22.80;99.90
52979;DHT22;63430;53.186;6.598;2023-07-28T11:09:26;22.90;99.90
52979;DHT22;63430;53.186;6.598;2023-07-28T11:11:29;23.00;99.90
52979;DHT22;63430;53.186;6.598;2023-07-28T11:13:32;23.10;99.90
52979;DHT22;63430;53.186;6.598;2023-07-28T11:15:43;23.30;99.90
52979;DHT22;63430;53.186;6.598;2023-07-28T11:17:49;23.20;99.90
52979;DHT22;63430;53.186;6.598;2023-07-28T11:19:55;23.00;99.90
52979;DHT22;63430;53.186;6.598;2023-07-28T11:21:58;22.90;99.90
52979;DHT22;63430;53.186;6.598;2023-07-28T11:24:03;22.80;99.90
52979;DHT22;63430;53.186;6.598;2023-07-28T11:26:09;22.80;99.90
52979;DHT22;63430;53.186;6.598;2023-07-28T11:28:14;22.80;99.90
52979;DHT22;63430;53.186;6.598;2023-07-28T11:30:21;23.00;99.90
52979;DHT22;63430;53.186;6.598;2023-07-28T11:32:24;23.10;99.90
52979;DHT22;63430;53.186;6.598;2023-07-28T11:34:27;23.30;99.90
52979;DHT22;63430;53.186;6.598;2023-07-28T11:36:32;23.50;99.90
52979;DHT22;63430;53.186;6.598;2023-07-28T11:38:37;23.60;99.90
52979;DHT22;63430;53.186;6.598;2023-07-28T11:40:41;23.80;99.90
52979;DHT22;63430;53.186;6.598;2023-07-28T11:42:46;23.80;99.90
52979;DHT22;63430;53.186;6.598;2023-07-28T11:44:51;23.80;99.90
52979;DHT22;63430;53.186;6.598;2023-07-28T11:46:55;23.90;99.90
52979;DHT22;63430;53.186;6.598;2023-07-28T11:49:07;24.10;99.90
52979;DHT22;63430;53.186;6.598;2023-07-28T11:51:13;24.30;99.90
52979;DHT22;63430;53.186;6.598;2023-07-28T11:53:22;24.40;99.90
52979;DHT22;63430;53.186;6.598;2023-07-28T11:55:25;24.20;99.90
52979;DHT22;63430;53.186;6.598;2023-07-28T11:57:29;24.10;99.90
52979;DHT22;63430;53.186;6.598;2023-07-28T11:59:35;24.00;99.90
52979;DHT22;63430;53.186;6.598;2023-07-28T12:01:52;23.90;99.90
52979;DHT22;63430;53.186;6.598;2023-07-28T12:03:58;23.80;99.90
52979;DHT22;63430;53.186;6.598;2023-07-28T12:06:05;23.60;99.90
52979;DHT22;63430;53.186;6.598;2023-07-28T12:08:32;23.50;99.90
52979;DHT22;63430;53.186;6.598;2023-07-28T12:10:35;23.60;99.90
52979;DHT22;63430;53.186;6.598;2023-07-28T12:12:43;23.80;99.90
52979;DHT22;63430;53.186;6.598;2023-07-28T12:14:49;23.90;99.90
52979;DHT22;63430;53.186;6.598;2023-07-28T12:17:13;24.00;99.90
52979;DHT22;63430;53.186;6.598;2023-07-28T12:19:21;24.10;99.90
52979;DHT22;63430;53.186;6.598;2023-07-28T12:21:24;24.10;99.90
52979;DHT22;63430;53.186;6.598;2023-07-28T12:23:30;24.10;99.90
52979;DHT22;63430;53.186;6.598;2023-07-28T12:25:36;24.20;99.90
52979;DHT22;63430;53.186;6.598;2023-07-28T12:27:40;24.20;99.90
52979;DHT22;63430;53.186;6.598;2023-07-28T12:29:43;24.00;99.90
52979;DHT22;63430;53.186;6.598;2023-07-28T12:31:48;23.90;99.90
52979;DHT22;63430;53.186;6.598;2023-07-28T12:33:51;23.80;99.90
52979;DHT22;63430;53.186;6.598;2023-07-28T12:36:03;23.80;99.90
52979;DHT22;63430;53.186;6.598;2023-07-28T12:38:12;23.90;99.90
52979;DHT22;63430;53.186;6.598;2023-07-28T12:40:21;24.00;99.90
52979;DHT22;63430;53.186;6.598;2023-07-28T12:42:28;24.20;99.90
52979;DHT22;63430;53.186;6.598;2023-07-28T12:44:51;24.30;99.90
52979;DHT22;63430;53.186;6.598;2023-07-28T12:46:57;24.40;99.20
52979;DHT22;63430;53.186;6.598;2023-07-28T12:48:59;24.30;97.50
52979;DHT22;63430;53.186;6.598;2023-07-28T12:51:02;24.10;98.70
52979;DHT22;63430;53.186;6.598;2023-07-28T12:53:07;24.20;99.70
52979;DHT22;63430;53.186;6.598;2023-07-28T12:55:21;24.30;99.90
52979;DHT22;63430;53.186;6.598;2023-07-28T12:57:24;24.50;99.90
52979;DHT22;63430;53.186;6.598;2023-07-28T12:59:27;24.60;99.90
52979;DHT22;63430;53.186;6.598;2023-07-28T13:01:30;24.70;99.90
52979;DHT22;63430;53.186;6.598;2023-07-28T13:03:33;24.80;99.90
52979;DHT22;63430;53.186;6.598;2023-07-28T13:05:36;24.90;99.40
52979;DHT22;63430;53.186;6.598;2023-07-28T13:07:40;25.00;99.90
52979;DHT22;63430;53.186;6.598;2023-07-28T13:09:46;25.10;98.90
52979;DHT22;63430;53.186;6.598;2023-07-28T13:11:51;25.10;98.40
52979;DHT22;63430;53.186;6.598;2023-07-28T13:13:57;25.10;98.10
52979;DHT22;63430;53.186;6.598;2023-07-28T13:15:59;25.10;96.70